createdAt,value
2019-05-02T00:01:08.799Z,13.07
2019-05-02T00:03:41.244Z,13.07
2019-05-02T00:06:07.400Z,11.97
2019-05-02T00:08:35.527Z,12.20
2019-05-02T00:11:04.467Z,12.97
2019-05-02T00:13:33.383Z,14.33
2019-05-02T00:16:02.291Z,13.33
2019-05-02T00:18:31.912Z,13.10
2019-05-02T00:21:01.420Z,15.45
2019-05-02T00:23:29.280Z,12.97
2019-05-02T00:25:57.885Z,12.63
2019-05-02T00:28:26.791Z,12.73
2019-05-02T00:30:55.725Z,11.87
2019-05-02T00:33:29.331Z,11.83
2019-05-02T00:35:53.513Z,12.17
2019-05-02T00:38:22.383Z,11.87
2019-05-02T00:40:51.273Z,12.73
2019-05-02T00:43:20.150Z,11.80
2019-05-02T00:45:49.033Z,11.97
2019-05-02T00:48:23.253Z,12.30
2019-05-02T00:50:52.525Z,12.97
2019-05-02T00:53:20.754Z,12.87
2019-05-02T00:55:49.647Z,12.90
2019-05-02T00:58:18.554Z,13.30
2019-05-02T01:01:06.572Z,13.00
2019-05-02T01:03:35.564Z,13.07
2019-05-02T01:06:04.499Z,12.13
2019-05-02T01:08:35.730Z,12.73
2019-05-02T01:11:02.270Z,13.30
2019-05-02T01:13:31.144Z,13.27
2019-05-02T01:16:00.049Z,13.07
2019-05-02T01:18:28.946Z,11.87
2019-05-02T01:20:58.087Z,12.23
2019-05-02T01:23:27.559Z,12.97
2019-05-02T01:25:55.669Z,12.20
2019-05-02T01:28:49.264Z,13.03
2019-05-02T01:31:33.640Z,12.47
2019-05-02T01:34:13.070Z,12.00
2019-05-02T01:36:49.190Z,12.20
2019-05-02T01:39:18.125Z,12.80
2019-05-02T01:41:47.021Z,12.43
2019-05-02T01:44:15.903Z,11.57
2019-05-02T01:46:44.788Z,12.47
2019-05-02T01:49:16.861Z,12.30
2019-05-02T01:51:47.331Z,13.17
2019-05-02T01:54:11.525Z,15.17
2019-05-02T01:56:40.358Z,16.00
2019-05-02T01:59:09.269Z,18.50
2019-05-02T02:01:38.154Z,20.17
2019-05-02T02:04:07.083Z,14.43
2019-05-02T02:06:38.892Z,14.33
2019-05-02T02:09:08.494Z,13.50
2019-05-02T02:11:35.840Z,13.90
2019-05-02T02:14:07.250Z,12.77
2019-05-02T02:16:35.317Z,13.93
2019-05-02T02:19:09.927Z,14.70
2019-05-02T02:21:43.951Z,14.63
2019-05-02T02:24:38.466Z,14.70
2019-05-02T02:27:06.523Z,14.47
2019-05-02T02:29:39.041Z,13.83
2019-05-02T02:32:04.322Z,13.83
2019-05-02T02:34:33.197Z,13.97
2019-05-02T02:37:05.547Z,14.03
2019-05-02T02:39:30.995Z,15.03
2019-05-02T02:41:59.885Z,14.17
2019-05-02T02:44:48.926Z,14.63
2019-05-02T02:47:18.995Z,14.53
2019-05-02T02:49:46.699Z,14.33
2019-05-02T02:52:15.566Z,14.97
2019-05-02T02:54:45.006Z,15.23
2019-05-02T02:57:25.756Z,14.57
2019-05-02T02:59:42.220Z,13.70
2019-05-02T03:02:12.150Z,14.97
2019-05-02T03:04:43.944Z,14.70
2019-05-02T03:07:08.926Z,15.67
2019-05-02T03:09:37.792Z,16.17
2019-05-02T03:12:24.355Z,16.03
2019-05-02T03:14:55.069Z,15.93
2019-05-02T03:17:26.470Z,16.10
2019-05-02T03:19:54.505Z,16.33
2019-05-02T03:22:21.789Z,16.57
2019-05-02T03:24:50.655Z,16.17
2019-05-02T03:27:19.566Z,16.00
2019-05-02T03:29:48.435Z,16.53
2019-05-02T03:32:31.528Z,16.90
2019-05-02T03:34:51.957Z,15.83
2019-05-02T03:37:15.224Z,20.13
2019-05-02T03:39:49.387Z,17.77
2019-05-02T03:42:13.021Z,16.87
2019-05-02T03:44:42.034Z,17.03
2019-05-02T03:47:10.824Z,18.03
2019-05-02T03:49:41.064Z,17.17
2019-05-02T03:52:08.684Z,16.80
2019-05-02T03:54:49.023Z,17.67
2019-05-02T03:57:06.534Z,17.63
2019-05-02T03:59:38.506Z,18.63
2019-05-02T04:02:04.349Z,18.67
2019-05-02T04:04:33.305Z,18.30
2019-05-02T04:07:03.493Z,19.47
2019-05-02T04:09:38.155Z,19.40
2019-05-02T04:12:01.634Z,19.90
2019-05-02T04:14:37.909Z,19.47
2019-05-02T04:16:59.452Z,29.35
2019-05-02T04:19:34.227Z,24.77
2019-05-02T04:22:01.488Z,26.97
2019-05-02T04:24:26.206Z,25.70
2019-05-02T04:26:56.388Z,38.23
2019-05-02T04:29:24.589Z,28.73
2019-05-02T04:31:53.003Z,27.60
2019-05-02T04:34:21.905Z,30.90
2019-05-02T04:36:59.807Z,29.30
2019-05-02T04:39:21.708Z,31.73
2019-05-02T04:41:48.812Z,33.70
2019-05-02T04:44:18.987Z,36.53
2019-05-02T04:46:48.875Z,36.93
2019-05-02T04:49:20.092Z,35.27
2019-05-02T04:51:50.804Z,37.70
2019-05-02T04:54:21.836Z,39.03
2019-05-02T04:56:52.340Z,39.70
2019-05-02T04:59:17.850Z,41.80
2019-05-02T05:01:48.395Z,40.63
2019-05-02T05:04:08.797Z,43.83
2019-05-02T05:06:40.740Z,42.10
2019-05-02T05:09:10.387Z,45.10
2019-05-02T05:11:35.624Z,46.00
2019-05-02T05:14:04.523Z,46.27
2019-05-02T05:16:33.434Z,45.33
2019-05-02T05:19:02.319Z,46.67
2019-05-02T05:21:31.226Z,47.80
2019-05-02T05:24:19.209Z,49.83
2019-05-02T05:26:50.952Z,47.23
2019-05-02T05:29:23.241Z,48.50
2019-05-02T05:31:48.738Z,50.47
2019-05-02T05:34:17.630Z,50.90
2019-05-02T05:36:48.166Z,49.90
2019-05-02T05:39:17.185Z,48.40
2019-05-02T05:41:50.542Z,48.93
2019-05-02T05:44:13.242Z,44.43
2019-05-02T05:46:42.658Z,44.17
2019-05-02T05:49:20.248Z,41.10
2019-05-02T05:51:39.925Z,38.97
2019-05-02T05:54:08.913Z,35.53
2019-05-02T05:56:42.880Z,34.53
2019-05-02T05:59:07.775Z,35.10
2019-05-02T06:01:36.409Z,35.40
2019-05-02T06:04:04.694Z,35.80
2019-05-02T06:06:33.840Z,37.30
2019-05-02T06:09:02.726Z,37.17
2019-05-02T06:11:31.652Z,48.63
2019-05-02T06:14:00.518Z,49.20
2019-05-02T06:16:29.423Z,40.00
2019-05-02T06:18:58.344Z,39.67
2019-05-02T06:21:27.232Z,38.57
2019-05-02T06:23:56.122Z,42.13
2019-05-02T06:26:25.044Z,40.23
2019-05-02T06:28:53.928Z,40.97
2019-05-02T06:31:22.834Z,41.30
2019-05-02T06:33:51.842Z,42.97
2019-05-02T06:36:20.705Z,51.13
2019-05-02T06:38:52.174Z,44.57
2019-05-02T06:41:21.077Z,42.83
2019-05-02T06:43:48.321Z,41.33
2019-05-02T06:46:21.551Z,39.13
2019-05-02T06:48:48.232Z,39.97
2019-05-02T06:51:19.658Z,38.20
2019-05-02T06:53:47.071Z,39.13
2019-05-02T06:56:14.516Z,38.90
2019-05-02T06:58:44.112Z,37.57
2019-05-02T07:01:20.661Z,37.30
2019-05-02T07:03:51.748Z,35.40
2019-05-02T07:06:23.745Z,34.40
2019-05-02T07:08:59.775Z,35.53
2019-05-02T07:11:39.053Z,37.07
2019-05-02T07:14:13.391Z,37.40
2019-05-02T07:16:49.586Z,37.08
2019-05-02T07:19:30.765Z,36.68
2019-05-02T07:24:48.547Z,37.40
2019-05-02T07:27:18.818Z,38.30
2019-05-02T07:30:09.575Z,38.48
2019-05-02T07:32:56.426Z,43.28
2019-05-02T07:35:28.563Z,40.75
2019-05-02T07:38:03.625Z,40.55
2019-05-02T07:40:37.963Z,38.95
2019-05-02T07:43:22.298Z,37.60
2019-05-02T07:45:55.006Z,44.83
2019-05-02T07:48:28.204Z,39.75
2019-05-02T07:51:05.435Z,39.38
2019-05-02T07:53:37.371Z,45.37
2019-05-02T07:56:12.531Z,40.63
2019-05-02T07:58:46.982Z,39.95
2019-05-02T08:01:13.527Z,41.83
2019-05-02T08:03:42.002Z,41.80
2019-05-02T08:06:11.107Z,41.95
2019-05-02T08:08:41.483Z,41.25
2019-05-02T08:11:18.033Z,40.88
2019-05-02T08:13:49.463Z,40.33
2019-05-02T08:16:16.523Z,40.30
2019-05-02T08:18:45.663Z,39.73
2019-05-02T08:21:14.698Z,39.83
2019-05-02T08:23:46.595Z,38.83
2019-05-02T08:26:21.564Z,37.55
2019-05-02T08:28:55.677Z,38.98
2019-05-02T08:31:30.059Z,39.90
2019-05-02T08:34:05.310Z,40.80
2019-05-02T08:36:33.995Z,39.90
2019-05-02T08:39:03.045Z,38.63
2019-05-02T08:41:38.272Z,40.73
2019-05-02T08:44:18.515Z,38.80
2019-05-02T08:46:51.416Z,44.33
2019-05-02T08:52:02.092Z,38.58
2019-05-02T08:54:34.233Z,39.48
2019-05-02T08:57:03.170Z,38.35
2019-05-02T08:59:32.266Z,38.38
2019-05-02T09:02:09.205Z,39.83
2019-05-02T09:04:57.324Z,37.63
2019-05-02T09:07:15.582Z,38.75
2019-05-02T09:09:49.539Z,38.50
2019-05-02T09:12:24.003Z,38.63
2019-05-02T09:14:53.120Z,36.58
2019-05-02T09:17:38.500Z,39.55
2019-05-02T09:20:21.024Z,38.88
2019-05-02T09:22:52.172Z,36.80
2019-05-02T09:25:24.191Z,38.58
2019-05-02T09:27:56.227Z,39.25
2019-05-02T09:30:35.266Z,38.53
2019-05-02T09:33:07.453Z,39.08
2019-05-02T09:35:44.133Z,36.95
2019-05-02T09:38:18.223Z,36.55
2019-05-02T09:40:56.134Z,35.23
2019-05-02T09:43:22.932Z,33.18
2019-05-02T09:45:59.736Z,39.13
2019-05-02T09:48:28.934Z,33.42
2019-05-02T09:51:03.103Z,32.30
2019-05-02T09:53:47.665Z,32.75
2019-05-02T09:56:16.626Z,34.15
2019-05-02T09:58:55.336Z,29.98
2019-05-02T10:01:32.733Z,33.73
2019-05-02T10:04:06.544Z,32.73
2019-05-02T10:06:39.271Z,31.50
2019-05-02T10:09:09.582Z,32.63
2019-05-02T10:12:04.647Z,33.95
2019-05-02T10:14:42.117Z,34.43
2019-05-02T10:17:18.433Z,34.45
2019-05-02T10:19:56.776Z,33.95
2019-05-02T10:22:26.711Z,38.25
2019-05-02T10:25:14.896Z,33.75
2019-05-02T10:27:47.506Z,34.33
2019-05-02T10:30:21.870Z,32.15
2019-05-02T10:32:57.292Z,34.63
2019-05-02T10:35:28.063Z,34.60
2019-05-02T10:37:57.596Z,35.60
2019-05-02T10:40:26.881Z,36.45
2019-05-02T10:42:55.847Z,38.30
2019-05-02T10:45:24.956Z,37.20
2019-05-02T10:48:02.183Z,38.00
2019-05-02T10:50:49.701Z,35.50
2019-05-02T10:53:21.908Z,36.13
2019-05-02T10:55:56.229Z,36.50
2019-05-02T10:58:31.969Z,34.55
2019-05-02T11:01:02.334Z,35.15
2019-05-02T11:03:42.883Z,35.08
2019-05-02T11:06:07.761Z,35.60
2019-05-02T11:08:45.721Z,35.30
2019-05-02T11:11:12.571Z,37.20
2019-05-02T11:13:53.295Z,38.58
2019-05-02T11:16:43.467Z,40.37
2019-05-02T11:19:23.915Z,41.97
2019-05-02T11:21:58.656Z,44.83
2019-05-02T11:24:28.755Z,40.30
2019-05-02T11:27:02.205Z,43.57
2019-05-02T11:29:32.248Z,43.73
2019-05-02T11:32:18.559Z,40.47
2019-05-02T11:34:53.969Z,45.17
2019-05-02T11:37:23.407Z,50.70
2019-05-02T11:39:59.577Z,43.37
2019-05-02T11:42:27.352Z,42.53
2019-05-02T11:45:05.563Z,42.87
2019-05-02T11:47:42.160Z,42.43
2019-05-02T11:50:13.014Z,42.63
2019-05-02T11:52:46.519Z,44.30
2019-05-02T11:55:24.724Z,44.17
2019-05-02T12:00:39.650Z,45.93
2019-05-02T12:03:22.437Z,46.80
2019-05-02T12:06:01.988Z,47.00
2019-05-02T12:09:25.848Z,47.43
2019-05-02T12:11:24.417Z,46.37
2019-05-02T12:13:57.070Z,50.03
2019-05-02T12:16:25.097Z,51.10
2019-05-02T12:19:07.903Z,51.60
2019-05-02T12:21:26.200Z,50.87
2019-05-02T12:24:02.922Z,50.03
2019-05-02T12:26:34.807Z,53.30
2019-05-02T12:29:06.901Z,56.13
2019-05-02T12:31:47.292Z,53.00
2019-05-02T12:34:14.654Z,52.30
2019-05-02T12:36:49.969Z,56.27
2019-05-02T12:39:22.146Z,56.83
2019-05-02T12:41:53.968Z,69.22
2019-05-02T12:44:28.630Z,60.77
2019-05-02T12:47:09.266Z,58.73
2019-05-02T12:49:42.961Z,58.23
2019-05-02T12:52:16.736Z,60.67
2019-05-02T12:54:48.039Z,58.80
2019-05-02T12:57:28.416Z,59.10
2019-05-02T13:00:12.872Z,56.53
2019-05-02T13:03:26.170Z,54.00
2019-05-02T13:05:55.189Z,54.27
2019-05-02T13:08:32.272Z,51.73
2019-05-02T13:11:23.718Z,52.93
2019-05-02T13:14:03.965Z,54.60
2019-05-02T13:16:34.514Z,54.87
2019-05-02T13:19:13.559Z,54.60
2019-05-02T13:22:28.161Z,56.57
2019-05-02T13:28:53.143Z,55.83
2019-05-02T13:31:39.759Z,57.07
2019-05-02T13:34:24.542Z,54.07
2019-05-02T13:36:53.639Z,50.13
2019-05-02T13:39:33.434Z,46.53
2019-05-02T13:42:08.894Z,40.33
2019-05-02T13:44:38.315Z,39.27
2019-05-02T13:47:09.428Z,39.33
2019-05-02T13:49:52.904Z,38.20
2019-05-02T13:52:12.478Z,38.70
2019-05-02T13:54:42.712Z,36.30
2019-05-02T13:57:12.586Z,29.90
2019-05-02T13:59:44.578Z,28.03
2019-05-02T14:02:52.019Z,28.07
2019-05-02T14:05:22.210Z,26.77
2019-05-02T14:07:55.658Z,27.87
2019-05-02T14:10:41.559Z,25.27
2019-05-02T14:13:08.445Z,25.07
2019-05-02T14:15:47.235Z,24.77
2019-05-02T14:18:28.624Z,24.33
2019-05-02T14:20:53.639Z,25.07
2019-05-02T14:23:23.038Z,25.20
2019-05-02T14:25:53.074Z,25.70
2019-05-02T14:28:26.625Z,26.23
2019-05-02T14:30:54.638Z,26.00
2019-05-02T14:33:43.410Z,26.07
2019-05-02T14:36:13.660Z,29.30
2019-05-02T14:38:43.834Z,33.83
2019-05-02T14:41:14.736Z,29.53
2019-05-02T14:43:58.937Z,29.10
2019-05-02T14:46:39.316Z,29.10
2019-05-02T14:49:04.215Z,27.80
2019-05-02T14:51:36.470Z,28.90
2019-05-02T14:54:14.705Z,27.47
2019-05-02T14:56:49.727Z,28.57
2019-05-02T14:59:20.043Z,28.67
2019-05-02T15:01:52.757Z,30.70
2019-05-02T15:04:27.396Z,28.70
2019-05-02T15:07:03.024Z,29.30
2019-05-02T15:09:34.459Z,30.60
2019-05-02T15:12:03.698Z,29.30
2019-05-02T15:14:34.126Z,29.60
2019-05-02T15:17:03.240Z,34.23
2019-05-02T15:19:32.910Z,28.23
2019-05-02T15:22:02.093Z,27.10
2019-05-02T15:24:33.324Z,25.87
2019-05-02T15:27:05.567Z,24.77
2019-05-02T15:29:27.790Z,25.40
2019-05-02T15:32:37.374Z,30.02
2019-05-02T15:35:08.766Z,31.57
2019-05-02T15:37:37.680Z,25.13
2019-05-02T15:42:35.558Z,26.17
2019-05-02T15:45:05.780Z,25.37
2019-05-02T15:47:37.016Z,26.87
2019-05-02T15:50:03.039Z,25.60
2019-05-02T15:52:32.670Z,25.57
2019-05-02T15:55:03.881Z,26.40
2019-05-02T15:57:38.133Z,26.20
2019-05-02T15:59:58.486Z,27.13
2019-05-02T16:02:27.403Z,27.63
2019-05-02T16:04:57.107Z,26.33
2019-05-02T16:07:25.201Z,26.73
2019-05-02T16:09:57.277Z,26.13
2019-05-02T16:12:27.078Z,25.80
2019-05-02T16:14:52.785Z,26.87
2019-05-02T16:17:25.447Z,26.73
2019-05-02T16:19:52.579Z,27.80
2019-05-02T16:22:22.885Z,26.77
2019-05-02T16:24:53.368Z,26.87
2019-05-02T16:27:24.420Z,27.90
2019-05-02T16:29:50.100Z,27.60
2019-05-02T16:32:42.073Z,28.13
2019-05-02T16:35:13.515Z,28.80
2019-05-02T16:37:38.752Z,28.10
2019-05-02T16:40:07.976Z,29.13
2019-05-02T16:42:37.258Z,29.73
2019-05-02T16:45:07.550Z,29.13
2019-05-02T16:47:36.424Z,30.70
2019-05-02T16:50:06.774Z,29.80
2019-05-02T16:52:38.126Z,29.87
2019-05-02T16:55:05.264Z,29.77
2019-05-02T16:57:35.183Z,29.03
2019-05-02T17:00:06.161Z,29.63
2019-05-02T17:02:32.450Z,29.37
2019-05-02T17:05:08.023Z,23.03
2019-05-02T17:07:44.986Z,21.93
2019-05-02T17:10:21.340Z,19.63
2019-05-02T17:12:52.905Z,12.80
2019-05-02T17:15:33.864Z,10.10
2019-05-02T17:17:59.694Z,8.47
2019-05-02T17:20:28.552Z,8.40
2019-05-02T17:23:05.144Z,7.77
2019-05-02T17:25:26.435Z,7.87
2019-05-02T17:28:01.103Z,6.80
2019-05-02T17:30:24.218Z,6.93
2019-05-02T17:32:53.122Z,6.40
2019-05-02T17:35:22.217Z,5.90
2019-05-02T17:37:52.458Z,5.30
2019-05-02T17:40:22.481Z,5.50
2019-05-02T17:42:48.753Z,5.40
2019-05-02T17:45:17.678Z,3.93
2019-05-02T17:47:47.323Z,3.43
2019-05-02T17:50:36.379Z,2.93
2019-05-02T17:53:05.450Z,3.00
2019-05-02T17:55:40.427Z,2.67
2019-05-02T17:58:10.108Z,2.60
2019-05-02T18:00:33.372Z,2.93
2019-05-02T18:03:02.483Z,3.57
2019-05-02T18:05:32.036Z,2.90
2019-05-02T18:07:59.545Z,3.50
2019-05-02T18:10:28.453Z,3.43
2019-05-02T18:12:59.913Z,3.10
2019-05-02T18:15:29.940Z,2.93
2019-05-02T18:17:59.673Z,3.33
2019-05-02T18:20:25.350Z,3.00
2019-05-02T18:22:52.853Z,3.33
2019-05-02T18:25:25.238Z,2.97
2019-05-02T18:27:51.765Z,2.83
2019-05-02T18:30:22.855Z,2.53
2019-05-02T18:32:49.229Z,2.70
2019-05-02T18:35:18.114Z,3.07
2019-05-02T18:37:47.021Z,3.00
2019-05-02T18:40:20.117Z,2.53
2019-05-02T18:42:44.869Z,2.77
2019-05-02T18:45:15.457Z,2.97
2019-05-02T18:47:44.348Z,3.40
2019-05-02T18:50:31.750Z,2.77
2019-05-02T18:52:58.730Z,2.67
2019-05-02T18:55:27.616Z,2.97
2019-05-02T18:57:57.102Z,2.80
2019-05-02T19:00:27.921Z,2.73
2019-05-02T19:02:56.481Z,2.70
2019-05-02T19:05:23.171Z,2.83
2019-05-02T19:07:56.228Z,3.03
2019-05-02T19:10:20.944Z,2.70
2019-05-02T19:12:49.796Z,2.53
2019-05-02T19:15:18.680Z,2.43
2019-05-02T19:17:47.565Z,2.43
2019-05-02T19:20:32.539Z,2.50
2019-05-02T19:23:00.324Z,2.40
2019-05-02T19:25:29.189Z,2.73
2019-05-02T19:28:02.907Z,2.47
2019-05-02T19:30:32.636Z,2.40
2019-05-02T19:33:03.662Z,2.10
2019-05-02T19:35:29.281Z,2.70
2019-05-02T19:37:58.162Z,2.60
2019-05-02T19:40:28.360Z,2.57
2019-05-02T19:42:57.306Z,2.70
2019-05-02T19:45:24.849Z,2.70
2019-05-02T19:47:57.595Z,2.50
2019-05-02T19:50:43.101Z,2.60
2019-05-02T19:53:05.156Z,2.50
2019-05-02T19:55:34.224Z,2.47
2019-05-02T19:58:06.406Z,2.30
2019-05-02T20:00:36.687Z,2.27
2019-05-02T20:03:01.831Z,2.80
2019-05-02T20:05:29.847Z,2.20
2019-05-02T20:07:58.729Z,2.70
2019-05-02T20:10:27.585Z,2.43
2019-05-02T20:12:56.457Z,2.50
2019-05-02T20:15:26.987Z,3.00
2019-05-02T20:18:00.440Z,2.70
2019-05-02T20:20:43.338Z,2.40
2019-05-02T20:23:16.193Z,2.60
2019-05-02T20:25:42.634Z,3.07
2019-05-02T20:28:10.031Z,3.58
2019-05-02T20:30:38.932Z,3.33
2019-05-02T20:33:07.848Z,3.60
2019-05-02T20:35:36.705Z,2.93
2019-05-02T20:38:05.643Z,2.90
2019-05-02T20:40:34.604Z,3.40
2019-05-02T20:43:03.512Z,3.27
2019-05-02T20:45:32.451Z,3.50
2019-05-02T20:48:02.166Z,3.30
2019-05-02T20:50:31.809Z,3.20
2019-05-02T20:52:59.220Z,3.73
2019-05-02T20:55:28.154Z,3.63
2019-05-02T20:57:57.071Z,3.10
2019-05-02T21:00:26.030Z,3.90
2019-05-02T21:02:54.965Z,3.83
2019-05-02T21:05:24.811Z,4.20
2019-05-02T21:08:10.438Z,3.70
2019-05-02T21:10:41.738Z,4.13
2019-05-02T21:13:10.026Z,4.33
2019-05-02T21:15:38.946Z,4.30
2019-05-02T21:18:07.946Z,4.67
2019-05-02T21:20:36.881Z,4.60
2019-05-02T21:23:05.916Z,4.50
2019-05-02T21:25:34.770Z,4.77
2019-05-02T21:28:03.745Z,4.80
2019-05-02T21:30:32.691Z,4.80
2019-05-02T21:33:02.824Z,5.13
2019-05-02T21:35:31.920Z,4.80
2019-05-02T21:37:59.520Z,5.20
2019-05-02T21:40:28.491Z,4.60
2019-05-02T21:42:57.398Z,4.90
2019-05-02T21:45:26.361Z,4.60
2019-05-02T21:47:55.284Z,4.90
2019-05-02T21:50:42.725Z,4.47
2019-05-02T21:53:22.209Z,4.60
2019-05-02T21:55:54.894Z,4.53
2019-05-02T21:58:23.817Z,4.60
2019-05-02T22:00:58.722Z,4.53
2019-05-02T22:03:27.635Z,5.43
2019-05-02T22:05:56.623Z,5.33
2019-05-02T22:08:25.524Z,5.58
2019-05-02T22:10:54.465Z,5.23
2019-05-02T22:13:23.392Z,5.23
2019-05-02T22:15:52.315Z,5.10
2019-05-02T22:18:21.709Z,5.53
2019-05-02T22:20:52.176Z,5.23
2019-05-02T22:23:19.116Z,5.00
2019-05-02T22:25:48.033Z,7.30
2019-05-02T22:28:16.999Z,5.60
2019-05-02T22:30:45.951Z,6.43
2019-05-02T22:33:14.878Z,6.30
2019-05-02T22:35:43.823Z,6.00
2019-05-02T22:38:18.351Z,7.40
2019-05-02T22:40:48.207Z,6.27
2019-05-02T22:43:17.099Z,5.80
2019-05-02T22:45:46.021Z,6.17
2019-05-02T22:48:14.957Z,6.13
2019-05-02T22:50:43.906Z,5.77
2019-05-02T22:53:13.999Z,5.07
2019-05-02T22:55:42.541Z,5.03
2019-05-02T22:58:10.666Z,5.10
2019-05-02T23:00:41.547Z,4.87
2019-05-02T23:03:08.576Z,5.27
2019-05-02T23:05:37.511Z,5.30
2019-05-02T23:08:06.492Z,5.53
2019-05-02T23:10:35.406Z,4.87
2019-05-02T23:13:04.414Z,4.83
2019-05-02T23:15:33.378Z,5.13
2019-05-02T23:18:02.342Z,4.90
2019-05-02T23:20:32.888Z,5.03
2019-05-02T23:23:01.891Z,5.17
2019-05-02T23:25:47.039Z,4.50
2019-05-02T23:28:19.176Z,4.77
2019-05-02T23:30:48.115Z,5.13
2019-05-02T23:33:17.053Z,4.60
2019-05-02T23:35:45.970Z,5.10
2019-05-02T23:38:14.915Z,5.00
2019-05-02T23:40:43.847Z,5.60
2019-05-02T23:43:12.853Z,5.50
2019-05-02T23:45:42.252Z,4.90
2019-05-02T23:48:12.535Z,5.23
2019-05-02T23:50:39.615Z,5.00
2019-05-02T23:53:08.610Z,4.97
2019-05-02T23:55:37.537Z,5.10
2019-05-02T23:58:06.508Z,5.43
